sensor_id;sensor_type;location;lat;lon;timestamp;P1;durP1;ratioP1;P2;durP2;ratioP2
19358;SDS011;9815;52.334;20.890;2024-03-06T00:01:21;100.63;;;39.50;;
19358;SDS011;9815;52.334;20.890;2024-03-06T00:03:50;103.57;;;39.90;;
19358;SDS011;9815;52.334;20.890;2024-03-06T00:06:21;105.30;;;41.00;;
19358;SDS011;9815;52.334;20.890;2024-03-06T00:08:49;111.90;;;41.53;;
19358;SDS011;9815;52.334;20.890;2024-03-06T00:11:18;103.53;;;41.43;;
19358;SDS011;9815;52.334;20.890;2024-03-06T00:13:48;104.13;;;41.80;;
19358;SDS011;9815;52.334;20.890;2024-03-06T00:16:16;96.87;;;40.83;;
19358;SDS011;9815;52.334;20.890;2024-03-06T00:18:46;102.97;;;40.10;;
19358;SDS011;9815;52.334;20.890;2024-03-06T00:21:14;109.97;;;41.93;;
19358;SDS011;9815;52.334;20.890;2024-03-06T00:23:44;105.43;;;40.80;;
19358;SDS011;9815;52.334;20.890;2024-03-06T00:26:13;104.07;;;42.10;;
19358;SDS011;9815;52.334;20.890;2024-03-06T00:28:42;101.70;;;43.03;;
19358;SDS011;9815;52.334;20.890;2024-03-06T00:31:11;99.93;;;42.60;;
19358;SDS011;9815;52.334;20.890;2024-03-06T00:33:40;106.40;;;44.80;;
19358;SDS011;9815;52.334;20.890;2024-03-06T00:36:09;97.53;;;41.50;;
19358;SDS011;9815;52.334;20.890;2024-03-06T00:38:38;106.70;;;43.30;;
19358;SDS011;9815;52.334;20.890;2024-03-06T00:41:08;107.10;;;42.20;;
19358;SDS011;9815;52.334;20.890;2024-03-06T00:43:38;98.20;;;41.97;;
19358;SDS011;9815;52.334;20.890;2024-03-06T00:46:07;93.47;;;40.87;;
19358;SDS011;9815;52.334;20.890;2024-03-06T00:48:36;109.80;;;43.47;;
19358;SDS011;9815;52.334;20.890;2024-03-06T00:51:07;95.33;;;42.07;;
19358;SDS011;9815;52.334;20.890;2024-03-06T00:53:37;85.87;;;42.13;;
19358;SDS011;9815;52.334;20.890;2024-03-06T00:56:06;89.07;;;41.40;;
19358;SDS011;9815;52.334;20.890;2024-03-06T00:58:37;92.23;;;42.50;;
19358;SDS011;9815;52.334;20.890;2024-03-06T01:01:07;91.07;;;41.23;;
19358;SDS011;9815;52.334;20.890;2024-03-06T01:03:37;90.73;;;40.73;;
19358;SDS011;9815;52.334;20.890;2024-03-06T01:06:06;83.47;;;40.50;;
19358;SDS011;9815;52.334;20.890;2024-03-06T01:08:35;82.43;;;38.77;;
19358;SDS011;9815;52.334;20.890;2024-03-06T01:11:04;81.97;;;34.37;;
19358;SDS011;9815;52.334;20.890;2024-03-06T01:13:35;79.53;;;34.53;;
19358;SDS011;9815;52.334;20.890;2024-03-06T01:16:04;75.13;;;34.70;;
19358;SDS011;9815;52.334;20.890;2024-03-06T01:18:34;77.33;;;35.43;;
19358;SDS011;9815;52.334;20.890;2024-03-06T01:21:02;70.20;;;34.50;;
19358;SDS011;9815;52.334;20.890;2024-03-06T01:23:31;71.33;;;34.93;;
19358;SDS011;9815;52.334;20.890;2024-03-06T01:26:00;67.93;;;34.20;;
19358;SDS011;9815;52.334;20.890;2024-03-06T01:28:30;73.03;;;34.70;;
19358;SDS011;9815;52.334;20.890;2024-03-06T01:31:02;74.30;;;33.30;;
19358;SDS011;9815;52.334;20.890;2024-03-06T01:33:31;69.67;;;33.43;;
19358;SDS011;9815;52.334;20.890;2024-03-06T01:36:01;65.13;;;33.43;;
19358;SDS011;9815;52.334;20.890;2024-03-06T01:38:32;73.63;;;32.43;;
19358;SDS011;9815;52.334;20.890;2024-03-06T01:41:01;61.53;;;31.03;;
19358;SDS011;9815;52.334;20.890;2024-03-06T01:43:36;65.67;;;30.67;;
19358;SDS011;9815;52.334;20.890;2024-03-06T01:46:07;68.63;;;31.37;;
19358;SDS011;9815;52.334;20.890;2024-03-06T01:48:37;65.90;;;29.73;;
19358;SDS011;9815;52.334;20.890;2024-03-06T01:51:07;67.00;;;30.97;;
19358;SDS011;9815;52.334;20.890;2024-03-06T01:53:35;70.37;;;30.93;;
19358;SDS011;9815;52.334;20.890;2024-03-06T01:56:04;62.70;;;29.63;;
19358;SDS011;9815;52.334;20.890;2024-03-06T01:58:38;57.67;;;28.70;;
19358;SDS011;9815;52.334;20.890;2024-03-06T02:01:09;62.13;;;29.63;;
19358;SDS011;9815;52.334;20.890;2024-03-06T02:03:37;59.77;;;28.53;;
19358;SDS011;9815;52.334;20.890;2024-03-06T02:06:07;54.80;;;28.50;;
19358;SDS011;9815;52.334;20.890;2024-03-06T02:08:39;61.70;;;29.03;;
19358;SDS011;9815;52.334;20.890;2024-03-06T02:11:08;60.03;;;28.07;;
19358;SDS011;9815;52.334;20.890;2024-03-06T02:13:38;60.27;;;28.20;;
19358;SDS011;9815;52.334;20.890;2024-03-06T02:16:09;57.67;;;27.47;;
19358;SDS011;9815;52.334;20.890;2024-03-06T02:18:49;54.70;;;27.10;;
19358;SDS011;9815;52.334;20.890;2024-03-06T02:21:21;55.57;;;26.50;;
19358;SDS011;9815;52.334;20.890;2024-03-06T02:23:50;61.97;;;27.93;;
19358;SDS011;9815;52.334;20.890;2024-03-06T02:26:20;63.57;;;29.23;;
19358;SDS011;9815;52.334;20.890;2024-03-06T02:28:49;51.93;;;26.37;;
19358;SDS011;9815;52.334;20.890;2024-03-06T02:31:19;53.13;;;27.20;;
19358;SDS011;9815;52.334;20.890;2024-03-06T02:33:49;54.23;;;26.10;;
19358;SDS011;9815;52.334;20.890;2024-03-06T02:36:18;65.60;;;28.13;;
19358;SDS011;9815;52.334;20.890;2024-03-06T02:38:48;58.00;;;26.90;;
19358;SDS011;9815;52.334;20.890;2024-03-06T02:41:17;56.13;;;28.07;;
19358;SDS011;9815;52.334;20.890;2024-03-06T02:43:45;54.87;;;27.60;;
19358;SDS011;9815;52.334;20.890;2024-03-06T02:46:14;58.67;;;28.30;;
19358;SDS011;9815;52.334;20.890;2024-03-06T02:48:42;56.33;;;25.90;;
19358;SDS011;9815;52.334;20.890;2024-03-06T02:51:11;54.80;;;26.83;;
19358;SDS011;9815;52.334;20.890;2024-03-06T02:53:45;52.97;;;26.33;;
19358;SDS011;9815;52.334;20.890;2024-03-06T02:56:17;54.70;;;27.47;;
19358;SDS011;9815;52.334;20.890;2024-03-06T02:58:46;54.90;;;25.33;;
19358;SDS011;9815;52.334;20.890;2024-03-06T03:01:14;54.10;;;26.70;;
19358;SDS011;9815;52.334;20.890;2024-03-06T03:03:43;53.00;;;26.97;;
19358;SDS011;9815;52.334;20.890;2024-03-06T03:06:13;60.13;;;27.03;;
19358;SDS011;9815;52.334;20.890;2024-03-06T03:08:42;56.80;;;27.50;;
19358;SDS011;9815;52.334;20.890;2024-03-06T03:11:11;48.80;;;25.30;;
19358;SDS011;9815;52.334;20.890;2024-03-06T03:13:41;59.37;;;26.80;;
19358;SDS011;9815;52.334;20.890;2024-03-06T03:16:14;58.13;;;27.93;;
19358;SDS011;9815;52.334;20.890;2024-03-06T03:18:44;53.90;;;26.53;;
19358;SDS011;9815;52.334;20.890;2024-03-06T03:21:14;52.73;;;25.67;;
19358;SDS011;9815;52.334;20.890;2024-03-06T03:23:43;53.80;;;26.17;;
19358;SDS011;9815;52.334;20.890;2024-03-06T03:26:11;56.30;;;27.63;;
19358;SDS011;9815;52.334;20.890;2024-03-06T03:28:41;57.83;;;27.60;;
19358;SDS011;9815;52.334;20.890;2024-03-06T03:31:10;50.03;;;25.93;;
19358;SDS011;9815;52.334;20.890;2024-03-06T03:33:38;50.33;;;26.10;;
19358;SDS011;9815;52.334;20.890;2024-03-06T03:36:07;53.27;;;26.50;;
19358;SDS011;9815;52.334;20.890;2024-03-06T03:38:37;45.53;;;23.73;;
19358;SDS011;9815;52.334;20.890;2024-03-06T03:41:08;59.57;;;25.13;;
19358;SDS011;9815;52.334;20.890;2024-03-06T03:43:37;51.90;;;25.40;;
19358;SDS011;9815;52.334;20.890;2024-03-06T03:46:08;54.63;;;26.47;;
19358;SDS011;9815;52.334;20.890;2024-03-06T03:48:37;52.73;;;26.00;;
19358;SDS011;9815;52.334;20.890;2024-03-06T03:51:07;57.00;;;26.20;;
19358;SDS011;9815;52.334;20.890;2024-03-06T03:53:35;53.60;;;26.37;;
19358;SDS011;9815;52.334;20.890;2024-03-06T03:56:04;60.57;;;26.07;;
19358;SDS011;9815;52.334;20.890;2024-03-06T03:58:32;60.40;;;26.03;;
19358;SDS011;9815;52.334;20.890;2024-03-06T04:01:02;56.27;;;24.40;;
19358;SDS011;9815;52.334;20.890;2024-03-06T04:03:32;52.83;;;25.57;;
19358;SDS011;9815;52.334;20.890;2024-03-06T04:06:01;58.23;;;25.93;;
19358;SDS011;9815;52.334;20.890;2024-03-06T04:08:30;54.07;;;24.57;;
19358;SDS011;9815;52.334;20.890;2024-03-06T04:10:59;54.17;;;25.77;;
19358;SDS011;9815;52.334;20.890;2024-03-06T04:13:28;51.63;;;25.77;;
19358;SDS011;9815;52.334;20.890;2024-03-06T04:15:57;61.03;;;27.13;;
19358;SDS011;9815;52.334;20.890;2024-03-06T04:18:26;60.83;;;25.97;;
19358;SDS011;9815;52.334;20.890;2024-03-06T04:20:57;54.27;;;25.63;;
19358;SDS011;9815;52.334;20.890;2024-03-06T04:23:26;51.80;;;24.63;;
19358;SDS011;9815;52.334;20.890;2024-03-06T04:25:55;57.20;;;25.70;;
19358;SDS011;9815;52.334;20.890;2024-03-06T04:28:24;53.90;;;26.77;;
19358;SDS011;9815;52.334;20.890;2024-03-06T04:30:53;49.80;;;25.17;;
19358;SDS011;9815;52.334;20.890;2024-03-06T04:33:22;60.30;;;26.10;;
19358;SDS011;9815;52.334;20.890;2024-03-06T04:35:51;54.03;;;25.60;;
19358;SDS011;9815;52.334;20.890;2024-03-06T04:38:21;52.97;;;25.43;;
19358;SDS011;9815;52.334;20.890;2024-03-06T04:40:50;60.07;;;26.17;;
19358;SDS011;9815;52.334;20.890;2024-03-06T04:43:19;56.23;;;25.87;;
19358;SDS011;9815;52.334;20.890;2024-03-06T04:45:48;50.87;;;25.10;;
19358;SDS011;9815;52.334;20.890;2024-03-06T04:48:17;57.47;;;27.93;;
19358;SDS011;9815;52.334;20.890;2024-03-06T04:50:46;66.93;;;27.07;;
19358;SDS011;9815;52.334;20.890;2024-03-06T04:53:15;56.93;;;24.43;;
19358;SDS011;9815;52.334;20.890;2024-03-06T04:55:45;58.30;;;25.47;;
19358;SDS011;9815;52.334;20.890;2024-03-06T04:58:14;52.17;;;24.87;;
19358;SDS011;9815;52.334;20.890;2024-03-06T05:00:44;53.30;;;25.00;;
19358;SDS011;9815;52.334;20.890;2024-03-06T05:03:13;48.87;;;25.40;;
19358;SDS011;9815;52.334;20.890;2024-03-06T05:06:00;58.30;;;25.10;;
19358;SDS011;9815;52.334;20.890;2024-03-06T05:08:46;54.00;;;24.63;;
19358;SDS011;9815;52.334;20.890;2024-03-06T05:11:34;52.43;;;24.27;;
19358;SDS011;9815;52.334;20.890;2024-03-06T05:14:20;57.23;;;24.73;;
19358;SDS011;9815;52.334;20.890;2024-03-06T05:17:06;57.10;;;25.57;;
19358;SDS011;9815;52.334;20.890;2024-03-06T05:19:53;56.07;;;26.80;;
19358;SDS011;9815;52.334;20.890;2024-03-06T05:22:39;55.73;;;25.87;;
19358;SDS011;9815;52.334;20.890;2024-03-06T05:25:25;49.87;;;24.13;;
19358;SDS011;9815;52.334;20.890;2024-03-06T05:28:13;52.33;;;22.83;;
19358;SDS011;9815;52.334;20.890;2024-03-06T05:30:59;53.00;;;23.57;;
19358;SDS011;9815;52.334;20.890;2024-03-06T05:33:46;50.77;;;23.63;;
19358;SDS011;9815;52.334;20.890;2024-03-06T05:36:34;54.60;;;21.70;;
19358;SDS011;9815;52.334;20.890;2024-03-06T05:39:20;49.63;;;22.33;;
19358;SDS011;9815;52.334;20.890;2024-03-06T05:42:07;52.50;;;22.33;;
19358;SDS011;9815;52.334;20.890;2024-03-06T05:44:54;51.30;;;23.23;;
19358;SDS011;9815;52.334;20.890;2024-03-06T05:47:44;61.13;;;23.27;;
19358;SDS011;9815;52.334;20.890;2024-03-06T05:50:31;56.73;;;23.57;;
19358;SDS011;9815;52.334;20.890;2024-03-06T05:53:17;48.87;;;21.70;;
19358;SDS011;9815;52.334;20.890;2024-03-06T05:56:04;51.30;;;23.27;;
19358;SDS011;9815;52.334;20.890;2024-03-06T05:58:51;50.13;;;22.63;;
19358;SDS011;9815;52.334;20.890;2024-03-06T06:01:22;48.17;;;22.40;;
19358;SDS011;9815;52.334;20.890;2024-03-06T06:03:51;56.50;;;24.53;;
19358;SDS011;9815;52.334;20.890;2024-03-06T06:06:20;53.23;;;26.33;;
19358;SDS011;9815;52.334;20.890;2024-03-06T06:08:49;99.00;;;43.30;;
19358;SDS011;9815;52.334;20.890;2024-03-06T06:11:17;161.33;;;55.53;;
19358;SDS011;9815;52.334;20.890;2024-03-06T06:13:46;138.17;;;46.80;;
19358;SDS011;9815;52.334;20.890;2024-03-06T06:16:14;83.53;;;32.83;;
19358;SDS011;9815;52.334;20.890;2024-03-06T06:18:45;61.67;;;28.43;;
19358;SDS011;9815;52.334;20.890;2024-03-06T06:21:14;53.30;;;24.00;;
19358;SDS011;9815;52.334;20.890;2024-03-06T06:23:45;74.83;;;31.90;;
19358;SDS011;9815;52.334;20.890;2024-03-06T06:26:13;64.80;;;28.10;;
19358;SDS011;9815;52.334;20.890;2024-03-06T06:28:42;50.27;;;23.60;;
19358;SDS011;9815;52.334;20.890;2024-03-06T06:31:13;59.53;;;23.90;;
19358;SDS011;9815;52.334;20.890;2024-03-06T06:33:41;63.83;;;26.87;;
19358;SDS011;9815;52.334;20.890;2024-03-06T06:36:13;84.00;;;32.43;;
19358;SDS011;9815;52.334;20.890;2024-03-06T06:38:42;76.10;;;30.63;;
19358;SDS011;9815;52.334;20.890;2024-03-06T06:41:10;41.30;;;19.30;;
19358;SDS011;9815;52.334;20.890;2024-03-06T06:43:39;46.43;;;20.40;;
19358;SDS011;9815;52.334;20.890;2024-03-06T06:46:08;45.07;;;20.77;;
19358;SDS011;9815;52.334;20.890;2024-03-06T06:48:36;48.80;;;20.57;;
19358;SDS011;9815;52.334;20.890;2024-03-06T06:51:05;44.73;;;19.83;;
19358;SDS011;9815;52.334;20.890;2024-03-06T06:53:35;39.43;;;18.50;;
19358;SDS011;9815;52.334;20.890;2024-03-06T06:56:06;72.70;;;32.43;;
19358;SDS011;9815;52.334;20.890;2024-03-06T06:58:35;63.27;;;29.03;;
19358;SDS011;9815;52.334;20.890;2024-03-06T07:01:04;40.40;;;18.60;;
19358;SDS011;9815;52.334;20.890;2024-03-06T07:03:33;47.30;;;24.30;;
19358;SDS011;9815;52.334;20.890;2024-03-06T07:06:01;49.03;;;23.37;;
19358;SDS011;9815;52.334;20.890;2024-03-06T07:08:31;45.33;;;21.83;;
19358;SDS011;9815;52.334;20.890;2024-03-06T07:11:01;41.70;;;18.03;;
19358;SDS011;9815;52.334;20.890;2024-03-06T07:13:30;48.60;;;19.93;;
19358;SDS011;9815;52.334;20.890;2024-03-06T07:15:59;41.80;;;18.40;;
19358;SDS011;9815;52.334;20.890;2024-03-06T07:18:29;38.67;;;18.67;;
19358;SDS011;9815;52.334;20.890;2024-03-06T07:20:58;41.17;;;18.43;;
19358;SDS011;9815;52.334;20.890;2024-03-06T07:23:27;53.13;;;26.17;;
19358;SDS011;9815;52.334;20.890;2024-03-06T07:25:56;50.03;;;21.10;;
19358;SDS011;9815;52.334;20.890;2024-03-06T07:28:27;46.17;;;20.27;;
19358;SDS011;9815;52.334;20.890;2024-03-06T07:30:56;201.50;;;63.60;;
19358;SDS011;9815;52.334;20.890;2024-03-06T07:33:24;67.70;;;29.33;;
19358;SDS011;9815;52.334;20.890;2024-03-06T07:35:53;64.77;;;29.63;;
19358;SDS011;9815;52.334;20.890;2024-03-06T07:38:21;56.20;;;26.40;;
19358;SDS011;9815;52.334;20.890;2024-03-06T07:40:51;51.77;;;19.83;;
19358;SDS011;9815;52.334;20.890;2024-03-06T07:43:20;47.97;;;19.73;;
19358;SDS011;9815;52.334;20.890;2024-03-06T07:45:51;51.47;;;22.77;;
19358;SDS011;9815;52.334;20.890;2024-03-06T07:48:19;62.30;;;25.73;;
19358;SDS011;9815;52.334;20.890;2024-03-06T07:50:48;105.10;;;40.03;;
19358;SDS011;9815;52.334;20.890;2024-03-06T07:53:17;66.83;;;28.53;;
19358;SDS011;9815;52.334;20.890;2024-03-06T07:55:46;61.97;;;28.43;;
19358;SDS011;9815;52.334;20.890;2024-03-06T07:58:14;49.20;;;23.00;;
19358;SDS011;9815;52.334;20.890;2024-03-06T08:00:43;45.33;;;20.20;;
19358;SDS011;9815;52.334;20.890;2024-03-06T08:03:13;51.30;;;25.23;;
19358;SDS011;9815;52.334;20.890;2024-03-06T08:05:41;51.40;;;20.97;;
19358;SDS011;9815;52.334;20.890;2024-03-06T08:08:11;43.57;;;20.17;;
19358;SDS011;9815;52.334;20.890;2024-03-06T08:10:40;49.87;;;21.60;;
19358;SDS011;9815;52.334;20.890;2024-03-06T08:13:11;61.83;;;26.40;;
19358;SDS011;9815;52.334;20.890;2024-03-06T08:15:40;52.40;;;24.87;;
19358;SDS011;9815;52.334;20.890;2024-03-06T08:18:12;51.43;;;24.13;;
19358;SDS011;9815;52.334;20.890;2024-03-06T08:20:41;49.97;;;26.17;;
19358;SDS011;9815;52.334;20.890;2024-03-06T08:23:10;45.93;;;20.67;;
19358;SDS011;9815;52.334;20.890;2024-03-06T08:25:39;49.13;;;20.97;;
19358;SDS011;9815;52.334;20.890;2024-03-06T08:28:07;43.37;;;19.27;;
19358;SDS011;9815;52.334;20.890;2024-03-06T08:30:36;48.30;;;20.67;;
19358;SDS011;9815;52.334;20.890;2024-03-06T08:33:05;48.50;;;21.13;;
19358;SDS011;9815;52.334;20.890;2024-03-06T08:35:35;75.07;;;32.37;;
19358;SDS011;9815;52.334;20.890;2024-03-06T08:38:04;47.47;;;21.90;;
19358;SDS011;9815;52.334;20.890;2024-03-06T08:40:34;60.13;;;26.03;;
19358;SDS011;9815;52.334;20.890;2024-03-06T08:43:04;44.13;;;19.40;;
19358;SDS011;9815;52.334;20.890;2024-03-06T08:45:33;46.47;;;21.10;;
19358;SDS011;9815;52.334;20.890;2024-03-06T08:48:02;47.63;;;22.87;;
19358;SDS011;9815;52.334;20.890;2024-03-06T08:50:32;40.47;;;21.07;;
19358;SDS011;9815;52.334;20.890;2024-03-06T08:53:02;35.87;;;18.90;;
19358;SDS011;9815;52.334;20.890;2024-03-06T08:55:31;41.87;;;20.23;;
19358;SDS011;9815;52.334;20.890;2024-03-06T08:58:00;40.07;;;20.87;;
19358;SDS011;9815;52.334;20.890;2024-03-06T09:00:28;35.07;;;18.93;;
19358;SDS011;9815;52.334;20.890;2024-03-06T09:02:57;37.20;;;18.17;;
19358;SDS011;9815;52.334;20.890;2024-03-06T09:05:26;35.77;;;18.00;;
19358;SDS011;9815;52.334;20.890;2024-03-06T09:07:57;37.67;;;18.77;;
19358;SDS011;9815;52.334;20.890;2024-03-06T09:10:28;43.33;;;18.87;;
19358;SDS011;9815;52.334;20.890;2024-03-06T09:12:56;33.00;;;17.60;;
19358;SDS011;9815;52.334;20.890;2024-03-06T09:15:26;34.70;;;17.27;;
19358;SDS011;9815;52.334;20.890;2024-03-06T09:17:54;64.40;;;27.93;;
19358;SDS011;9815;52.334;20.890;2024-03-06T09:20:24;52.53;;;24.40;;
19358;SDS011;9815;52.334;20.890;2024-03-06T09:22:53;76.33;;;34.10;;
19358;SDS011;9815;52.334;20.890;2024-03-06T09:25:25;54.17;;;25.67;;
19358;SDS011;9815;52.334;20.890;2024-03-06T09:27:56;36.83;;;19.40;;
19358;SDS011;9815;52.334;20.890;2024-03-06T09:30:25;39.73;;;21.00;;
19358;SDS011;9815;52.334;20.890;2024-03-06T09:32:54;41.60;;;20.77;;
19358;SDS011;9815;52.334;20.890;2024-03-06T09:35:23;36.77;;;18.23;;
19358;SDS011;9815;52.334;20.890;2024-03-06T09:37:52;34.10;;;16.50;;
19358;SDS011;9815;52.334;20.890;2024-03-06T09:40:21;32.53;;;16.83;;
19358;SDS011;9815;52.334;20.890;2024-03-06T09:42:52;29.37;;;14.27;;
19358;SDS011;9815;52.334;20.890;2024-03-06T09:45:21;29.23;;;14.77;;
19358;SDS011;9815;52.334;20.890;2024-03-06T09:47:50;32.90;;;16.23;;
19358;SDS011;9815;52.334;20.890;2024-03-06T09:50:22;32.07;;;15.93;;
19358;SDS011;9815;52.334;20.890;2024-03-06T09:52:53;28.67;;;14.73;;
19358;SDS011;9815;52.334;20.890;2024-03-06T09:55:24;31.77;;;15.83;;
19358;SDS011;9815;52.334;20.890;2024-03-06T09:57:55;26.47;;;14.00;;
19358;SDS011;9815;52.334;20.890;2024-03-06T10:00:24;30.17;;;14.07;;
19358;SDS011;9815;52.334;20.890;2024-03-06T10:02:54;25.90;;;13.23;;
19358;SDS011;9815;52.334;20.890;2024-03-06T10:05:27;24.83;;;13.83;;
19358;SDS011;9815;52.334;20.890;2024-03-06T10:07:57;28.93;;;13.57;;
19358;SDS011;9815;52.334;20.890;2024-03-06T10:10:27;26.47;;;13.03;;
19358;SDS011;9815;52.334;20.890;2024-03-06T10:12:57;28.37;;;13.50;;
19358;SDS011;9815;52.334;20.890;2024-03-06T10:15:29;26.77;;;13.07;;
19358;SDS011;9815;52.334;20.890;2024-03-06T10:20:42;28.17;;;12.27;;
19358;SDS011;9815;52.334;20.890;2024-03-06T10:23:11;29.40;;;13.37;;
19358;SDS011;9815;52.334;20.890;2024-03-06T10:25:40;33.10;;;13.50;;
19358;SDS011;9815;52.334;20.890;2024-03-06T10:28:13;27.33;;;12.83;;
19358;SDS011;9815;52.334;20.890;2024-03-06T10:30:41;27.70;;;11.93;;
19358;SDS011;9815;52.334;20.890;2024-03-06T10:33:12;26.60;;;12.00;;
19358;SDS011;9815;52.334;20.890;2024-03-06T10:35:42;28.60;;;13.27;;
19358;SDS011;9815;52.334;20.890;2024-03-06T10:38:13;26.10;;;12.83;;
19358;SDS011;9815;52.334;20.890;2024-03-06T10:40:42;20.57;;;11.33;;
19358;SDS011;9815;52.334;20.890;2024-03-06T10:43:13;21.97;;;11.30;;
19358;SDS011;9815;52.334;20.890;2024-03-06T10:45:45;17.80;;;9.87;;
19358;SDS011;9815;52.334;20.890;2024-03-06T10:48:16;18.93;;;9.20;;
19358;SDS011;9815;52.334;20.890;2024-03-06T10:50:46;21.80;;;9.80;;
19358;SDS011;9815;52.334;20.890;2024-03-06T10:53:17;19.30;;;8.77;;
19358;SDS011;9815;52.334;20.890;2024-03-06T10:55:50;18.60;;;8.73;;
19358;SDS011;9815;52.334;20.890;2024-03-06T10:58:21;18.77;;;8.70;;
19358;SDS011;9815;52.334;20.890;2024-03-06T11:00:51;19.23;;;9.13;;
19358;SDS011;9815;52.334;20.890;2024-03-06T11:03:22;16.60;;;8.70;;
19358;SDS011;9815;52.334;20.890;2024-03-06T11:05:51;21.23;;;9.57;;
19358;SDS011;9815;52.334;20.890;2024-03-06T11:08:21;14.33;;;7.90;;
19358;SDS011;9815;52.334;20.890;2024-03-06T11:10:52;20.23;;;8.57;;
19358;SDS011;9815;52.334;20.890;2024-03-06T11:13:23;17.13;;;9.07;;
19358;SDS011;9815;52.334;20.890;2024-03-06T11:15:53;18.67;;;7.87;;
19358;SDS011;9815;52.334;20.890;2024-03-06T11:18:41;14.93;;;7.80;;
19358;SDS011;9815;52.334;20.890;2024-03-06T11:21:29;16.47;;;8.33;;
19358;SDS011;9815;52.334;20.890;2024-03-06T11:24:13;17.43;;;7.43;;
19358;SDS011;9815;52.334;20.890;2024-03-06T11:26:49;12.90;;;7.03;;
19358;SDS011;9815;52.334;20.890;2024-03-06T11:29:26;17.67;;;7.27;;
19358;SDS011;9815;52.334;20.890;2024-03-06T11:31:59;15.43;;;7.27;;
19358;SDS011;9815;52.334;20.890;2024-03-06T11:34:29;12.40;;;6.60;;
19358;SDS011;9815;52.334;20.890;2024-03-06T11:36:58;14.07;;;7.30;;
19358;SDS011;9815;52.334;20.890;2024-03-06T11:39:28;10.70;;;6.70;;
19358;SDS011;9815;52.334;20.890;2024-03-06T11:42:00;15.10;;;6.57;;
19358;SDS011;9815;52.334;20.890;2024-03-06T11:44:31;14.13;;;7.73;;
19358;SDS011;9815;52.334;20.890;2024-03-06T11:47:03;13.83;;;7.20;;
19358;SDS011;9815;52.334;20.890;2024-03-06T11:49:35;14.57;;;6.87;;
19358;SDS011;9815;52.334;20.890;2024-03-06T11:52:07;15.47;;;6.90;;
19358;SDS011;9815;52.334;20.890;2024-03-06T11:54:37;14.33;;;6.60;;
19358;SDS011;9815;52.334;20.890;2024-03-06T11:57:05;11.80;;;7.30;;
19358;SDS011;9815;52.334;20.890;2024-03-06T11:59:36;12.03;;;6.13;;
19358;SDS011;9815;52.334;20.890;2024-03-06T12:02:06;15.23;;;6.40;;
19358;SDS011;9815;52.334;20.890;2024-03-06T12:04:37;12.67;;;7.13;;
19358;SDS011;9815;52.334;20.890;2024-03-06T12:07:06;14.03;;;7.23;;
19358;SDS011;9815;52.334;20.890;2024-03-06T12:09:36;12.30;;;6.23;;
19358;SDS011;9815;52.334;20.890;2024-03-06T12:12:09;10.57;;;6.10;;
19358;SDS011;9815;52.334;20.890;2024-03-06T12:14:40;14.77;;;5.87;;
19358;SDS011;9815;52.334;20.890;2024-03-06T12:17:12;21.63;;;6.77;;
19358;SDS011;9815;52.334;20.890;2024-03-06T12:19:43;13.80;;;5.80;;
19358;SDS011;9815;52.334;20.890;2024-03-06T12:22:12;10.77;;;5.73;;
19358;SDS011;9815;52.334;20.890;2024-03-06T12:24:42;19.97;;;6.20;;
19358;SDS011;9815;52.334;20.890;2024-03-06T12:27:11;11.00;;;6.20;;
19358;SDS011;9815;52.334;20.890;2024-03-06T12:29:42;8.77;;;5.20;;
19358;SDS011;9815;52.334;20.890;2024-03-06T12:32:17;14.60;;;6.50;;
19358;SDS011;9815;52.334;20.890;2024-03-06T12:34:56;8.57;;;5.63;;
19358;SDS011;9815;52.334;20.890;2024-03-06T12:37:30;9.37;;;5.50;;
19358;SDS011;9815;52.334;20.890;2024-03-06T12:40:01;10.30;;;5.80;;
19358;SDS011;9815;52.334;20.890;2024-03-06T12:42:32;11.13;;;6.20;;
19358;SDS011;9815;52.334;20.890;2024-03-06T12:45:02;10.20;;;5.20;;
19358;SDS011;9815;52.334;20.890;2024-03-06T12:47:34;10.87;;;5.23;;
19358;SDS011;9815;52.334;20.890;2024-03-06T12:50:03;10.40;;;5.10;;
19358;SDS011;9815;52.334;20.890;2024-03-06T12:52:34;7.40;;;4.43;;
19358;SDS011;9815;52.334;20.890;2024-03-06T12:55:03;10.47;;;5.13;;
19358;SDS011;9815;52.334;20.890;2024-03-06T12:57:33;9.90;;;5.50;;
19358;SDS011;9815;52.334;20.890;2024-03-06T13:00:04;9.90;;;5.33;;
19358;SDS011;9815;52.334;20.890;2024-03-06T13:02:40;15.00;;;5.13;;
19358;SDS011;9815;52.334;20.890;2024-03-06T13:05:11;12.30;;;5.67;;
19358;SDS011;9815;52.334;20.890;2024-03-06T13:07:40;8.53;;;4.83;;
19358;SDS011;9815;52.334;20.890;2024-03-06T13:10:10;9.20;;;5.40;;
19358;SDS011;9815;52.334;20.890;2024-03-06T13:12:39;12.07;;;5.90;;
19358;SDS011;9815;52.334;20.890;2024-03-06T13:15:10;11.30;;;5.63;;
19358;SDS011;9815;52.334;20.890;2024-03-06T13:17:39;12.60;;;5.30;;
19358;SDS011;9815;52.334;20.890;2024-03-06T13:20:08;9.43;;;4.80;;
19358;SDS011;9815;52.334;20.890;2024-03-06T13:22:38;10.97;;;5.13;;
19358;SDS011;9815;52.334;20.890;2024-03-06T13:25:08;8.10;;;4.77;;
19358;SDS011;9815;52.334;20.890;2024-03-06T13:27:37;8.13;;;4.57;;
19358;SDS011;9815;52.334;20.890;2024-03-06T13:30:07;7.63;;;4.70;;
19358;SDS011;9815;52.334;20.890;2024-03-06T13:32:40;10.50;;;5.00;;
19358;SDS011;9815;52.334;20.890;2024-03-06T13:35:12;11.17;;;4.90;;
19358;SDS011;9815;52.334;20.890;2024-03-06T13:37:41;10.63;;;5.50;;
19358;SDS011;9815;52.334;20.890;2024-03-06T13:40:11;8.17;;;4.47;;
19358;SDS011;9815;52.334;20.890;2024-03-06T13:42:40;9.87;;;5.07;;
19358;SDS011;9815;52.334;20.890;2024-03-06T13:45:10;13.30;;;5.60;;
19358;SDS011;9815;52.334;20.890;2024-03-06T13:47:42;9.57;;;5.53;;
19358;SDS011;9815;52.334;20.890;2024-03-06T13:50:13;9.50;;;5.07;;
19358;SDS011;9815;52.334;20.890;2024-03-06T13:52:42;10.10;;;5.37;;
19358;SDS011;9815;52.334;20.890;2024-03-06T13:55:12;12.87;;;5.93;;
19358;SDS011;9815;52.334;20.890;2024-03-06T13:57:41;9.03;;;4.90;;
19358;SDS011;9815;52.334;20.890;2024-03-06T14:00:11;8.03;;;5.03;;
19358;SDS011;9815;52.334;20.890;2024-03-06T14:02:46;8.90;;;5.13;;
19358;SDS011;9815;52.334;20.890;2024-03-06T14:05:15;13.50;;;5.03;;
19358;SDS011;9815;52.334;20.890;2024-03-06T14:07:44;9.37;;;5.47;;
19358;SDS011;9815;52.334;20.890;2024-03-06T14:10:13;8.63;;;5.20;;
19358;SDS011;9815;52.334;20.890;2024-03-06T14:12:43;10.63;;;5.57;;
19358;SDS011;9815;52.334;20.890;2024-03-06T14:15:12;13.53;;;5.20;;
19358;SDS011;9815;52.334;20.890;2024-03-06T14:17:42;11.17;;;6.07;;
19358;SDS011;9815;52.334;20.890;2024-03-06T14:20:14;27.30;;;10.67;;
19358;SDS011;9815;52.334;20.890;2024-03-06T14:22:44;16.33;;;7.40;;
19358;SDS011;9815;52.334;20.890;2024-03-06T14:25:14;13.93;;;6.13;;
19358;SDS011;9815;52.334;20.890;2024-03-06T14:27:44;13.17;;;6.17;;
19358;SDS011;9815;52.334;20.890;2024-03-06T14:30:13;11.17;;;5.93;;
19358;SDS011;9815;52.334;20.890;2024-03-06T14:32:44;10.70;;;6.20;;
19358;SDS011;9815;52.334;20.890;2024-03-06T14:35:14;9.70;;;5.93;;
19358;SDS011;9815;52.334;20.890;2024-03-06T14:37:43;9.53;;;5.60;;
19358;SDS011;9815;52.334;20.890;2024-03-06T14:40:12;10.80;;;5.60;;
19358;SDS011;9815;52.334;20.890;2024-03-06T14:42:41;12.73;;;6.40;;
19358;SDS011;9815;52.334;20.890;2024-03-06T14:45:11;12.13;;;6.63;;
19358;SDS011;9815;52.334;20.890;2024-03-06T14:47:39;13.30;;;6.60;;
19358;SDS011;9815;52.334;20.890;2024-03-06T14:50:19;11.90;;;7.03;;